Aviation Digital Data Service (ADDS)

Output produced by METARs form (1210 UTC 15 November 2018)
found at http://www.aviationweather.gov/metar/data/
 
TKPK 151131Z 1512/1612 09010KT P6SM VCSH FEW016 SCT020 SCT022 
     FM151500 09015KT P6SM -SHRA FEW020 SCT035 SCT050 
     FM160000 07014KT P6SM VCSH SCT018
       
TAF TKPN 151100Z 1512/1612 11014KT 9999 SCT018 
     PROB30 
     TEMPO 1603/1612 11015G25KT SHRA